DLH1475 ESSA-EDDH
Flight info
| Callsign | DLH1475 |
|---|---|
| Flight time | 1h 23m |
| Altitude | 38000 |
| Route | ESSA/01L N0466F400 NOSL5C NOSLI N850 ABAMA DCT GIMRU T503 MICOS/N0400F280 N850 BOGMU BOGM5A EDDH/05 |
| Aircraft | A333/H-V/N |
Departure
| Time | 2026-05-05 16:54 |
|---|---|
| Airport | Stockholm-Arlanda Airport (ESSA) |
Arrival
| Time | 2026-05-05 18:18 |
|---|---|
| Airport | Hamburg Helmut Schmidt Airport (EDDH) |
| Time | Latitude | Longitude | Altitude | Speed | Heading |
|---|---|---|---|---|---|
| 2026-05-05 16:28 | 59.65383 | 17.93153 | 119 ft | 0 kts | 220° |
| 2026-05-05 16:39 | 59.65384 | 17.93154 | 119 ft | 1 kts | 220° |
| 2026-05-05 16:39 | 59.65396 | 17.93173 | 119 ft | 2 kts | 220° |
| 2026-05-05 16:39 | 59.65407 | 17.93193 | 120 ft | 2 kts | 245° |
| 2026-05-05 16:39 | 59.65410 | 17.93221 | 120 ft | 2 kts | 283° |
| 2026-05-05 16:40 | 59.65404 | 17.93248 | 121 ft | 2 kts | 318° |
| 2026-05-05 16:40 | 59.65394 | 17.93261 | 121 ft | 0 kts | 345° |
| 2026-05-05 16:40 | 59.65389 | 17.93263 | 121 ft | 0 kts | 347° |
| 2026-05-05 16:44 | 59.65391 | 17.93262 | 121 ft | 1 kts | 347° |
| 2026-05-05 16:44 | 59.65418 | 17.93249 | 121 ft | 5 kts | 344° |
| 2026-05-05 16:44 | 59.65465 | 17.93204 | 120 ft | 9 kts | 332° |
| 2026-05-05 16:44 | 59.65502 | 17.93106 | 119 ft | 9 kts | 277° |
| 2026-05-05 16:45 | 59.65491 | 17.92988 | 119 ft | 8 kts | 252° |
| 2026-05-05 16:45 | 59.65469 | 17.92866 | 116 ft | 10 kts | 249° |
| 2026-05-05 16:45 | 59.65438 | 17.92728 | 114 ft | 11 kts | 241° |
| 2026-05-05 16:45 | 59.65388 | 17.92593 | 112 ft | 12 kts | 227° |
| 2026-05-05 16:46 | 59.65319 | 17.92477 | 109 ft | 13 kts | 211° |
| 2026-05-05 16:46 | 59.65243 | 17.92407 | 110 ft | 11 kts | 199° |
| 2026-05-05 16:46 | 59.65170 | 17.92371 | 110 ft | 10 kts | 192° |
| 2026-05-05 16:46 | 59.65103 | 17.92345 | 110 ft | 9 kts | 191° |
| 2026-05-05 16:47 | 59.65041 | 17.92323 | 112 ft | 8 kts | 190° |
| 2026-05-05 16:47 | 59.64981 | 17.92301 | 112 ft | 10 kts | 190° |
| 2026-05-05 16:47 | 59.64900 | 17.92271 | 113 ft | 12 kts | 191° |
| 2026-05-05 16:47 | 59.64823 | 17.92244 | 114 ft | 10 kts | 189° |
| 2026-05-05 16:48 | 59.64766 | 17.92203 | 114 ft | 8 kts | 227° |
| 2026-05-05 16:48 | 59.64742 | 17.92100 | 114 ft | 7 kts | 240° |
| 2026-05-05 16:48 | 59.64706 | 17.92046 | 115 ft | 7 kts | 204° |
| 2026-05-05 16:48 | 59.64650 | 17.92016 | 116 ft | 8 kts | 192° |
| 2026-05-05 16:49 | 59.64587 | 17.91990 | 116 ft | 10 kts | 191° |
| 2026-05-05 16:49 | 59.64515 | 17.91965 | 116 ft | 9 kts | 189° |
| 2026-05-05 16:49 | 59.64459 | 17.91947 | 118 ft | 7 kts | 190° |
| 2026-05-05 16:49 | 59.64389 | 17.91921 | 119 ft | 11 kts | 190° |
| 2026-05-05 16:50 | 59.64312 | 17.91894 | 119 ft | 10 kts | 191° |
| 2026-05-05 16:50 | 59.64248 | 17.91870 | 121 ft | 8 kts | 191° |
| 2026-05-05 16:50 | 59.64201 | 17.91853 | 122 ft | 5 kts | 191° |
| 2026-05-05 16:50 | 59.64172 | 17.91842 | 122 ft | 3 kts | 190° |
| 2026-05-05 16:51 | 59.64140 | 17.91831 | 122 ft | 6 kts | 190° |
| 2026-05-05 16:51 | 59.64077 | 17.91809 | 121 ft | 12 kts | 190° |
| 2026-05-05 16:51 | 59.63969 | 17.91772 | 119 ft | 19 kts | 190° |
| 2026-05-05 16:51 | 59.63853 | 17.91712 | 117 ft | 11 kts | 204° |
| 2026-05-05 16:52 | 59.63787 | 17.91619 | 115 ft | 12 kts | 221° |
| 2026-05-05 16:52 | 59.63740 | 17.91530 | 115 ft | 4 kts | 236° |
| 2026-05-05 16:52 | 59.63732 | 17.91472 | 116 ft | 7 kts | 266° |
| 2026-05-05 16:52 | 59.63769 | 17.91349 | 118 ft | 12 kts | 347° |
| 2026-05-05 16:53 | 59.63789 | 17.91348 | 118 ft | 0 kts | 4° |
| 2026-05-05 16:53 | 59.63792 | 17.91349 | 118 ft | 3 kts | 4° |
| 2026-05-05 16:53 | 59.63882 | 17.91378 | 118 ft | 33 kts | 10° |
| 2026-05-05 16:53 | 59.64305 | 17.91530 | 122 ft | 93 kts | 9° |
| 2026-05-05 16:54 | 59.65154 | 17.91839 | 113 ft | 153 kts | 8° |
| 2026-05-05 16:54 | 59.66340 | 17.92285 | 315 ft | 183 kts | 8° |
| 2026-05-05 16:54 | 59.67545 | 17.92779 | 904 ft | 178 kts | 6° |
| 2026-05-05 16:54 | 59.68715 | 17.92370 | 1383 ft | 168 kts | 327° |
| 2026-05-05 16:55 | 59.69418 | 17.90690 | 1750 ft | 162 kts | 286° |
| 2026-05-05 16:55 | 59.69394 | 17.88395 | 1960 ft | 179 kts | 262° |
| 2026-05-05 16:55 | 59.69223 | 17.85987 | 2328 ft | 180 kts | 266° |
| 2026-05-05 16:55 | 59.69086 | 17.83466 | 2469 ft | 191 kts | 267° |
| 2026-05-05 16:56 | 59.68945 | 17.80771 | 2596 ft | 207 kts | 266° |
| 2026-05-05 16:56 | 59.68777 | 17.77864 | 2910 ft | 218 kts | 260° |
| 2026-05-05 16:56 | 59.68324 | 17.74909 | 3252 ft | 231 kts | 255° |
| 2026-05-05 16:56 | 59.67827 | 17.71816 | 3550 ft | 245 kts | 255° |
| 2026-05-05 16:57 | 59.67302 | 17.68549 | 3957 ft | 255 kts | 253° |
| 2026-05-05 16:57 | 59.66360 | 17.65560 | 4492 ft | 264 kts | 225° |
| 2026-05-05 16:57 | 59.64763 | 17.63751 | 5087 ft | 271 kts | 198° |
| 2026-05-05 16:57 | 59.62946 | 17.62811 | 5688 ft | 271 kts | 199° |
| 2026-05-05 16:58 | 59.61151 | 17.61741 | 6188 ft | 273 kts | 200° |
| 2026-05-05 16:58 | 59.59354 | 17.60649 | 6720 ft | 274 kts | 200° |
| 2026-05-05 16:58 | 59.57527 | 17.59533 | 7267 ft | 275 kts | 200° |
| 2026-05-05 16:58 | 59.55711 | 17.58421 | 7815 ft | 276 kts | 200° |
| 2026-05-05 16:59 | 59.53891 | 17.57309 | 8358 ft | 277 kts | 200° |
| 2026-05-05 16:59 | 59.52063 | 17.56182 | 8890 ft | 277 kts | 202° |
| 2026-05-05 16:59 | 59.50247 | 17.54863 | 9379 ft | 276 kts | 212° |
| 2026-05-05 16:59 | 59.48670 | 17.52837 | 9851 ft | 276 kts | 217° |
| 2026-05-05 17:00 | 59.47066 | 17.50682 | 10185 ft | 283 kts | 218° |
| 2026-05-05 17:00 | 59.45404 | 17.48403 | 10330 ft | 298 kts | 218° |
| 2026-05-05 17:00 | 59.43687 | 17.46048 | 10501 ft | 311 kts | 218° |
| 2026-05-05 17:00 | 59.41887 | 17.43580 | 10655 ft | 323 kts | 218° |
| 2026-05-05 17:01 | 59.40011 | 17.41012 | 10812 ft | 335 kts | 218° |
| 2026-05-05 17:01 | 59.38101 | 17.38403 | 11298 ft | 337 kts | 218° |
| 2026-05-05 17:01 | 59.36183 | 17.35785 | 11840 ft | 336 kts | 219° |
| 2026-05-05 17:01 | 59.34266 | 17.33170 | 12363 ft | 336 kts | 219° |
| 2026-05-05 17:02 | 59.32363 | 17.30577 | 12883 ft | 335 kts | 219° |
| 2026-05-05 17:02 | 59.30483 | 17.28019 | 13374 ft | 334 kts | 220° |
| 2026-05-05 17:02 | 59.28589 | 17.25450 | 13896 ft | 333 kts | 220° |
| 2026-05-05 17:02 | 59.26697 | 17.22885 | 14397 ft | 331 kts | 221° |
| 2026-05-05 17:03 | 59.24816 | 17.20337 | 14902 ft | 329 kts | 221° |
| 2026-05-05 17:03 | 59.22964 | 17.17829 | 15387 ft | 327 kts | 221° |
| 2026-05-05 17:03 | 59.21097 | 17.15307 | 15870 ft | 324 kts | 221° |
| 2026-05-05 17:03 | 59.19263 | 17.12834 | 16363 ft | 321 kts | 221° |
| 2026-05-05 17:04 | 59.17435 | 17.10371 | 16835 ft | 319 kts | 221° |
| 2026-05-05 17:04 | 59.15626 | 17.07935 | 17301 ft | 315 kts | 221° |
| 2026-05-05 17:04 | 59.13840 | 17.05535 | 17766 ft | 312 kts | 222° |
| 2026-05-05 17:04 | 59.12068 | 17.03157 | 18243 ft | 309 kts | 222° |
| 2026-05-05 17:05 | 59.10344 | 17.00847 | 18708 ft | 305 kts | 222° |
| 2026-05-05 17:05 | 59.08581 | 16.98481 | 19205 ft | 307 kts | 222° |
| 2026-05-05 17:05 | 59.06813 | 16.96114 | 19344 ft | 315 kts | 222° |
| 2026-05-05 17:05 | 59.04996 | 16.93681 | 19460 ft | 322 kts | 222° |
| 2026-05-05 17:06 | 59.03158 | 16.91234 | 19602 ft | 327 kts | 221° |
| 2026-05-05 17:06 | 59.01247 | 16.88687 | 19726 ft | 333 kts | 221° |
| 2026-05-05 17:06 | 58.99348 | 16.86160 | 19846 ft | 338 kts | 221° |
| 2026-05-05 17:06 | 58.97382 | 16.83548 | 19979 ft | 344 kts | 221° |
| 2026-05-05 17:07 | 58.95413 | 16.80940 | 20141 ft | 347 kts | 221° |
| 2026-05-05 17:07 | 58.93438 | 16.78328 | 20653 ft | 342 kts | 221° |
| 2026-05-05 17:07 | 58.91518 | 16.75794 | 21150 ft | 336 kts | 221° |
| 2026-05-05 17:07 | 58.89589 | 16.73243 | 21630 ft | 331 kts | 222° |
| 2026-05-05 17:08 | 58.87734 | 16.70797 | 22115 ft | 326 kts | 221° |
| 2026-05-05 17:08 | 58.85881 | 16.68362 | 22616 ft | 320 kts | 222° |
| 2026-05-05 17:08 | 58.84063 | 16.65966 | 23108 ft | 314 kts | 222° |
| 2026-05-05 17:08 | 58.82287 | 16.63631 | 23473 ft | 311 kts | 222° |
| 2026-05-05 17:09 | 58.80506 | 16.61295 | 23792 ft | 310 kts | 222° |
| 2026-05-05 17:09 | 58.78733 | 16.58969 | 24106 ft | 310 kts | 222° |
| 2026-05-05 17:09 | 58.76923 | 16.56596 | 24255 ft | 319 kts | 222° |
| 2026-05-05 17:09 | 58.75089 | 16.54192 | 24394 ft | 327 kts | 221° |
| 2026-05-05 17:10 | 58.73185 | 16.51707 | 24543 ft | 335 kts | 221° |
| 2026-05-05 17:10 | 58.71235 | 16.49165 | 24675 ft | 343 kts | 221° |
| 2026-05-05 17:10 | 58.69250 | 16.46581 | 24807 ft | 350 kts | 221° |
| 2026-05-05 17:10 | 58.67207 | 16.43924 | 25005 ft | 356 kts | 221° |
| 2026-05-05 17:11 | 58.65147 | 16.41253 | 25253 ft | 360 kts | 221° |
| 2026-05-05 17:11 | 58.63111 | 16.38618 | 25775 ft | 356 kts | 221° |
| 2026-05-05 17:11 | 58.61079 | 16.35990 | 26281 ft | 353 kts | 221° |
| 2026-05-05 17:11 | 58.59067 | 16.33391 | 26750 ft | 350 kts | 220° |
| 2026-05-05 17:12 | 58.57064 | 16.30807 | 27184 ft | 348 kts | 221° |
| 2026-05-05 17:12 | 58.55074 | 16.28239 | 27626 ft | 345 kts | 220° |
| 2026-05-05 17:12 | 58.53095 | 16.25694 | 28066 ft | 342 kts | 221° |
| 2026-05-05 17:12 | 58.51134 | 16.23172 | 28505 ft | 338 kts | 221° |
| 2026-05-05 17:13 | 58.49220 | 16.20713 | 28927 ft | 335 kts | 221° |
| 2026-05-05 17:13 | 58.47298 | 16.18250 | 29261 ft | 333 kts | 221° |
| 2026-05-05 17:13 | 58.45370 | 16.15779 | 29450 ft | 335 kts | 221° |
| 2026-05-05 17:13 | 58.43434 | 16.13301 | 29572 ft | 338 kts | 221° |
| 2026-05-05 17:14 | 58.41484 | 16.10811 | 29685 ft | 340 kts | 221° |
| 2026-05-05 17:14 | 58.39516 | 16.08303 | 29829 ft | 345 kts | 220° |
| 2026-05-05 17:14 | 58.37522 | 16.05761 | 30039 ft | 348 kts | 220° |
| 2026-05-05 17:14 | 58.35527 | 16.03229 | 30457 ft | 345 kts | 220° |
| 2026-05-05 17:15 | 58.33541 | 16.00707 | 30731 ft | 346 kts | 220° |
| 2026-05-05 17:15 | 58.31525 | 15.98146 | 30840 ft | 352 kts | 220° |
| 2026-05-05 17:15 | 58.29481 | 15.95558 | 30977 ft | 357 kts | 220° |
| 2026-05-05 17:15 | 58.27406 | 15.92934 | 31124 ft | 362 kts | 220° |
| 2026-05-05 17:16 | 58.25286 | 15.90258 | 31369 ft | 366 kts | 220° |
| 2026-05-05 17:16 | 58.23168 | 15.87586 | 31621 ft | 370 kts | 220° |
| 2026-05-05 17:16 | 58.21015 | 15.84879 | 31888 ft | 373 kts | 220° |
| 2026-05-05 17:16 | 58.18866 | 15.82167 | 32162 ft | 375 kts | 220° |
| 2026-05-05 17:17 | 58.16693 | 15.79447 | 32432 ft | 377 kts | 220° |
| 2026-05-05 17:17 | 58.14527 | 15.76733 | 32709 ft | 379 kts | 220° |
| 2026-05-05 17:17 | 58.12333 | 15.73986 | 32984 ft | 380 kts | 220° |
| 2026-05-05 17:17 | 58.10128 | 15.71232 | 33254 ft | 382 kts | 220° |
| 2026-05-05 17:18 | 58.07895 | 15.68447 | 33529 ft | 383 kts | 220° |
| 2026-05-05 17:18 | 58.05671 | 15.65677 | 33798 ft | 384 kts | 220° |
| 2026-05-05 17:18 | 58.03454 | 15.62919 | 34060 ft | 384 kts | 220° |
| 2026-05-05 17:18 | 58.01236 | 15.60165 | 34308 ft | 383 kts | 220° |
| 2026-05-05 17:19 | 57.96824 | 15.54459 | 34463 ft | 385 kts | 223° |
| 2026-05-05 17:19 | 57.92510 | 15.48444 | 34653 ft | 389 kts | 222° |
| 2026-05-05 17:20 | 57.88107 | 15.42360 | 34797 ft | 392 kts | 222° |
| 2026-05-05 17:20 | 57.83697 | 15.36285 | 34923 ft | 395 kts | 222° |
| 2026-05-05 17:21 | 57.79288 | 15.30230 | 35057 ft | 397 kts | 221° |
| 2026-05-05 17:22 | 57.72562 | 15.21032 | 35254 ft | 400 kts | 221° |
| 2026-05-05 17:22 | 57.68057 | 15.14897 | 35387 ft | 401 kts | 221° |
| 2026-05-05 17:23 | 57.63575 | 15.08811 | 35514 ft | 403 kts | 221° |
| 2026-05-05 17:23 | 57.59058 | 15.02695 | 35648 ft | 403 kts | 220° |
| 2026-05-05 17:24 | 57.54512 | 14.96562 | 35767 ft | 404 kts | 220° |
| 2026-05-05 17:24 | 57.49969 | 14.90450 | 35858 ft | 403 kts | 220° |
| 2026-05-05 17:25 | 57.45407 | 14.84332 | 35882 ft | 408 kts | 220° |
| 2026-05-05 17:25 | 57.40814 | 14.78192 | 35872 ft | 412 kts | 220° |
| 2026-05-05 17:26 | 57.36163 | 14.71995 | 35860 ft | 416 kts | 220° |
| 2026-05-05 17:26 | 57.31445 | 14.65730 | 35916 ft | 417 kts | 220° |
| 2026-05-05 17:27 | 57.26749 | 14.59512 | 36068 ft | 415 kts | 220° |
| 2026-05-05 17:27 | 57.24423 | 14.56439 | 36184 ft | 414 kts | 220° |
| 2026-05-05 17:27 | 57.22090 | 14.53365 | 36292 ft | 413 kts | 220° |
| 2026-05-05 17:28 | 57.17469 | 14.47284 | 36501 ft | 410 kts | 220° |
| 2026-05-05 17:28 | 57.15142 | 14.44229 | 36616 ft | 409 kts | 220° |
| 2026-05-05 17:28 | 57.12858 | 14.41237 | 36709 ft | 408 kts | 220° |
| 2026-05-05 17:29 | 57.08224 | 14.35177 | 36207 ft | 415 kts | 220° |
| 2026-05-05 17:29 | 57.05868 | 14.32108 | 35789 ft | 416 kts | 219° |
| 2026-05-05 17:29 | 57.03527 | 14.29057 | 35936 ft | 413 kts | 219° |
| 2026-05-05 17:30 | 56.98817 | 14.22937 | 35845 ft | 420 kts | 219° |
| 2026-05-05 17:30 | 56.94033 | 14.16741 | 35861 ft | 423 kts | 219° |
| 2026-05-05 17:31 | 56.89229 | 14.10540 | 35872 ft | 425 kts | 219° |
| 2026-05-05 17:31 | 56.84414 | 14.04344 | 35888 ft | 427 kts | 219° |
| 2026-05-05 17:32 | 56.79582 | 13.98146 | 35883 ft | 428 kts | 219° |
| 2026-05-05 17:32 | 56.74716 | 13.91928 | 35873 ft | 430 kts | 219° |
| 2026-05-05 17:33 | 56.69842 | 13.85714 | 35879 ft | 431 kts | 219° |
| 2026-05-05 17:33 | 56.64926 | 13.79472 | 35883 ft | 431 kts | 219° |
| 2026-05-05 17:34 | 56.60036 | 13.73279 | 35882 ft | 432 kts | 219° |
| 2026-05-05 17:34 | 56.55119 | 13.67073 | 35882 ft | 432 kts | 219° |
| 2026-05-05 17:35 | 56.50195 | 13.60879 | 35890 ft | 433 kts | 219° |
| 2026-05-05 17:35 | 56.45259 | 13.54690 | 35881 ft | 433 kts | 219° |
| 2026-05-05 17:36 | 56.40321 | 13.48517 | 35885 ft | 433 kts | 219° |
| 2026-05-05 17:36 | 56.35372 | 13.42351 | 35865 ft | 435 kts | 219° |
| 2026-05-05 17:36 | 56.32866 | 13.39235 | 35144 ft | 449 kts | 219° |
| 2026-05-05 17:37 | 56.30283 | 13.36030 | 34767 ft | 452 kts | 219° |
| 2026-05-05 17:37 | 56.27700 | 13.32831 | 34584 ft | 454 kts | 218° |
| 2026-05-05 17:37 | 56.25122 | 13.29643 | 34393 ft | 455 kts | 218° |
| 2026-05-05 17:38 | 56.19951 | 13.23266 | 34441 ft | 451 kts | 218° |
| 2026-05-05 17:38 | 56.14801 | 13.16932 | 34445 ft | 449 kts | 218° |
| 2026-05-05 17:39 | 56.09676 | 13.10652 | 34446 ft | 448 kts | 218° |
| 2026-05-05 17:39 | 56.04540 | 13.04379 | 34444 ft | 447 kts | 218° |
| 2026-05-05 17:40 | 55.99443 | 12.98173 | 34441 ft | 447 kts | 218° |
| 2026-05-05 17:40 | 55.94324 | 12.91962 | 34443 ft | 447 kts | 218° |
| 2026-05-05 17:41 | 55.89188 | 12.85750 | 34438 ft | 447 kts | 218° |
| 2026-05-05 17:41 | 55.84083 | 12.79594 | 34442 ft | 446 kts | 218° |
| 2026-05-05 17:42 | 55.78925 | 12.73396 | 34449 ft | 446 kts | 218° |
| 2026-05-05 17:42 | 55.73833 | 12.67297 | 34451 ft | 446 kts | 218° |
| 2026-05-05 17:43 | 55.68707 | 12.61175 | 34447 ft | 445 kts | 218° |
| 2026-05-05 17:43 | 55.63565 | 12.55056 | 34445 ft | 445 kts | 218° |
| 2026-05-05 17:44 | 55.58461 | 12.49001 | 34435 ft | 445 kts | 218° |
| 2026-05-05 17:44 | 55.53301 | 12.42898 | 34428 ft | 445 kts | 218° |
| 2026-05-05 17:45 | 55.48195 | 12.36879 | 34422 ft | 445 kts | 218° |
| 2026-05-05 17:45 | 55.43069 | 12.30855 | 34426 ft | 445 kts | 217° |
| 2026-05-05 17:46 | 55.37931 | 12.24838 | 34435 ft | 445 kts | 217° |
| 2026-05-05 17:46 | 55.32794 | 12.18839 | 34443 ft | 444 kts | 217° |
| 2026-05-05 17:47 | 55.27665 | 12.12868 | 34444 ft | 444 kts | 217° |
| 2026-05-05 17:47 | 55.22524 | 12.06903 | 34450 ft | 444 kts | 217° |
| 2026-05-05 17:48 | 55.17391 | 12.00966 | 34443 ft | 444 kts | 217° |
| 2026-05-05 17:48 | 55.12235 | 11.95020 | 34440 ft | 444 kts | 217° |
| 2026-05-05 17:49 | 55.07085 | 11.89101 | 34615 ft | 437 kts | 217° |
| 2026-05-05 17:49 | 55.04627 | 11.86286 | 35029 ft | 417 kts | 217° |
| 2026-05-05 17:49 | 55.02257 | 11.83570 | 35358 ft | 410 kts | 217° |
| 2026-05-05 17:49 | 54.99871 | 11.80843 | 35690 ft | 403 kts | 217° |
| 2026-05-05 17:50 | 54.97548 | 11.78189 | 35944 ft | 399 kts | 217° |
| 2026-05-05 17:50 | 54.95211 | 11.75520 | 35624 ft | 415 kts | 217° |
| 2026-05-05 17:50 | 54.92770 | 11.72739 | 35158 ft | 430 kts | 217° |
| 2026-05-05 17:50 | 54.90238 | 11.69863 | 34772 ft | 438 kts | 217° |
| 2026-05-05 17:51 | 54.87693 | 11.66977 | 34260 ft | 438 kts | 217° |
| 2026-05-05 17:51 | 54.85163 | 11.64112 | 33758 ft | 434 kts | 217° |
| 2026-05-05 17:51 | 54.82687 | 11.61311 | 33250 ft | 426 kts | 217° |
| 2026-05-05 17:51 | 54.80241 | 11.58547 | 32728 ft | 418 kts | 217° |
| 2026-05-05 17:52 | 54.77816 | 11.55810 | 32120 ft | 413 kts | 217° |
| 2026-05-05 17:52 | 54.75427 | 11.53121 | 31516 ft | 409 kts | 218° |
| 2026-05-05 17:52 | 54.73076 | 11.50472 | 30914 ft | 404 kts | 218° |
| 2026-05-05 17:52 | 54.70737 | 11.47846 | 30290 ft | 401 kts | 218° |
| 2026-05-05 17:53 | 54.68403 | 11.45223 | 29657 ft | 397 kts | 218° |
| 2026-05-05 17:53 | 54.66132 | 11.42680 | 29046 ft | 395 kts | 218° |
| 2026-05-05 17:53 | 54.63849 | 11.40123 | 28417 ft | 392 kts | 218° |
| 2026-05-05 17:53 | 54.61574 | 11.37583 | 27793 ft | 390 kts | 218° |
| 2026-05-05 17:54 | 54.59309 | 11.35055 | 27165 ft | 387 kts | 218° |
| 2026-05-05 17:54 | 54.57074 | 11.32564 | 26551 ft | 385 kts | 217° |
| 2026-05-05 17:54 | 54.54841 | 11.29990 | 25929 ft | 382 kts | 219° |
| 2026-05-05 17:54 | 54.52706 | 11.27358 | 25318 ft | 380 kts | 219° |
| 2026-05-05 17:55 | 54.50572 | 11.24754 | 24721 ft | 379 kts | 219° |
| 2026-05-05 17:55 | 54.48428 | 11.22143 | 24121 ft | 377 kts | 219° |
| 2026-05-05 17:55 | 54.46310 | 11.19569 | 23530 ft | 376 kts | 219° |
| 2026-05-05 17:55 | 54.44175 | 11.16980 | 22923 ft | 374 kts | 219° |
| 2026-05-05 17:56 | 54.42084 | 11.14443 | 22337 ft | 373 kts | 218° |
| 2026-05-05 17:56 | 54.39964 | 11.11879 | 21745 ft | 372 kts | 218° |
| 2026-05-05 17:56 | 54.37864 | 11.09341 | 21155 ft | 370 kts | 218° |
| 2026-05-05 17:56 | 54.35773 | 11.06816 | 20574 ft | 369 kts | 218° |
| 2026-05-05 17:57 | 54.33707 | 11.04326 | 20150 ft | 364 kts | 218° |
| 2026-05-05 17:57 | 54.31665 | 11.01869 | 19806 ft | 357 kts | 218° |
| 2026-05-05 17:57 | 54.29800 | 10.99121 | 19422 ft | 347 kts | 232° |
| 2026-05-05 17:57 | 54.28383 | 10.95864 | 19088 ft | 341 kts | 235° |
| 2026-05-05 17:58 | 54.26961 | 10.92617 | 18733 ft | 340 kts | 234° |
| 2026-05-05 17:58 | 54.25542 | 10.89429 | 18383 ft | 339 kts | 234° |
| 2026-05-05 17:58 | 54.24106 | 10.86229 | 18035 ft | 339 kts | 234° |
| 2026-05-05 17:58 | 54.22692 | 10.83093 | 17694 ft | 337 kts | 234° |
| 2026-05-05 17:59 | 54.21257 | 10.79918 | 17344 ft | 335 kts | 234° |
| 2026-05-05 17:59 | 54.19853 | 10.76815 | 16998 ft | 334 kts | 234° |
| 2026-05-05 17:59 | 54.18406 | 10.73624 | 16663 ft | 343 kts | 234° |
| 2026-05-05 17:59 | 54.16943 | 10.70402 | 16323 ft | 345 kts | 234° |
| 2026-05-05 18:00 | 54.15488 | 10.67203 | 15981 ft | 344 kts | 234° |
| 2026-05-05 18:00 | 54.14038 | 10.64019 | 15629 ft | 343 kts | 234° |
| 2026-05-05 18:00 | 54.12571 | 10.60803 | 15277 ft | 341 kts | 234° |
| 2026-05-05 18:00 | 54.11134 | 10.57654 | 14916 ft | 340 kts | 234° |
| 2026-05-05 18:01 | 54.09685 | 10.54485 | 14574 ft | 340 kts | 234° |
| 2026-05-05 18:01 | 54.08223 | 10.51290 | 14217 ft | 339 kts | 234° |
| 2026-05-05 18:01 | 54.06785 | 10.48152 | 13865 ft | 338 kts | 234° |
| 2026-05-05 18:01 | 54.05353 | 10.45033 | 13505 ft | 337 kts | 234° |
| 2026-05-05 18:02 | 54.03927 | 10.41927 | 13175 ft | 335 kts | 234° |
| 2026-05-05 18:02 | 54.02492 | 10.38829 | 12818 ft | 334 kts | 232° |
| 2026-05-05 18:02 | 54.00712 | 10.36284 | 12436 ft | 336 kts | 211° |
| 2026-05-05 18:02 | 53.98495 | 10.35083 | 12095 ft | 340 kts | 190° |
| 2026-05-05 18:03 | 53.96124 | 10.34862 | 11766 ft | 341 kts | 184° |
| 2026-05-05 18:03 | 53.93767 | 10.34737 | 11408 ft | 340 kts | 184° |
| 2026-05-05 18:03 | 53.91444 | 10.34615 | 11014 ft | 338 kts | 184° |
| 2026-05-05 18:03 | 53.89097 | 10.34489 | 10610 ft | 336 kts | 184° |
| 2026-05-05 18:04 | 53.86778 | 10.34355 | 10104 ft | 327 kts | 184° |
| 2026-05-05 18:04 | 53.84598 | 10.34237 | 9825 ft | 306 kts | 184° |
| 2026-05-05 18:04 | 53.82550 | 10.34129 | 9994 ft | 291 kts | 184° |
| 2026-05-05 18:04 | 53.80531 | 10.34024 | 9840 ft | 293 kts | 184° |
| 2026-05-05 18:05 | 53.78490 | 10.33914 | 9414 ft | 290 kts | 184° |
| 2026-05-05 18:05 | 53.76516 | 10.33798 | 9070 ft | 283 kts | 184° |
| 2026-05-05 18:05 | 53.74558 | 10.33669 | 8728 ft | 280 kts | 184° |
| 2026-05-05 18:05 | 53.72637 | 10.33529 | 8385 ft | 280 kts | 184° |
| 2026-05-05 18:06 | 53.70690 | 10.33374 | 7919 ft | 280 kts | 184° |
| 2026-05-05 18:06 | 53.69408 | 10.33266 | 7626 ft | 278 kts | 184° |
| 2026-05-05 18:06 | 53.66874 | 10.32688 | 7020 ft | 275 kts | 204° |
| 2026-05-05 18:06 | 53.65326 | 10.30892 | 6593 ft | 270 kts | 229° |
| 2026-05-05 18:07 | 53.64173 | 10.28450 | 6137 ft | 268 kts | 234° |
| 2026-05-05 18:07 | 53.63060 | 10.25935 | 5683 ft | 268 kts | 234° |
| 2026-05-05 18:07 | 53.61960 | 10.23443 | 5241 ft | 266 kts | 234° |
| 2026-05-05 18:07 | 53.60868 | 10.20965 | 4843 ft | 260 kts | 234° |
| 2026-05-05 18:08 | 53.59830 | 10.18608 | 4948 ft | 247 kts | 234° |
| 2026-05-05 18:08 | 53.58801 | 10.16280 | 4810 ft | 248 kts | 234° |
| 2026-05-05 18:08 | 53.57769 | 10.13945 | 4545 ft | 249 kts | 234° |
| 2026-05-05 18:08 | 53.56747 | 10.11633 | 4294 ft | 248 kts | 234° |
| 2026-05-05 18:09 | 53.55718 | 10.09306 | 4041 ft | 248 kts | 234° |
| 2026-05-05 18:09 | 53.54695 | 10.06994 | 3949 ft | 244 kts | 234° |
| 2026-05-05 18:09 | 53.53680 | 10.04702 | 3982 ft | 246 kts | 234° |
| 2026-05-05 18:09 | 53.52660 | 10.02406 | 3968 ft | 247 kts | 234° |
| 2026-05-05 18:10 | 53.51630 | 10.00091 | 3970 ft | 248 kts | 234° |
| 2026-05-05 18:10 | 53.50593 | 9.97760 | 3969 ft | 248 kts | 234° |
| 2026-05-05 18:10 | 53.49565 | 9.95441 | 3966 ft | 249 kts | 234° |
| 2026-05-05 18:10 | 53.48542 | 9.93132 | 3967 ft | 247 kts | 234° |
| 2026-05-05 18:11 | 53.47509 | 9.90800 | 3881 ft | 250 kts | 234° |
| 2026-05-05 18:11 | 53.46481 | 9.88471 | 3614 ft | 252 kts | 234° |
| 2026-05-05 18:11 | 53.45440 | 9.86117 | 3363 ft | 251 kts | 234° |
| 2026-05-05 18:11 | 53.44411 | 9.83794 | 3075 ft | 245 kts | 234° |
| 2026-05-05 18:12 | 53.43665 | 9.81343 | 2927 ft | 234 kts | 264° |
| 2026-05-05 18:12 | 53.43797 | 9.78737 | 3038 ft | 227 kts | 297° |
| 2026-05-05 18:12 | 53.44699 | 9.76655 | 2975 ft | 219 kts | 322° |
| 2026-05-05 18:12 | 53.45849 | 9.75002 | 2988 ft | 218 kts | 324° |
| 2026-05-05 18:13 | 53.47002 | 9.73380 | 2954 ft | 218 kts | 324° |
| 2026-05-05 18:13 | 53.48201 | 9.71850 | 2957 ft | 212 kts | 339° |
| 2026-05-05 18:13 | 53.49583 | 9.71464 | 2964 ft | 199 kts | 15° |
| 2026-05-05 18:13 | 53.50870 | 9.72172 | 3007 ft | 197 kts | 26° |
| 2026-05-05 18:14 | 53.51883 | 9.73679 | 2946 ft | 199 kts | 68° |
| 2026-05-05 18:14 | 53.52052 | 9.75951 | 3060 ft | 201 kts | 86° |
| 2026-05-05 18:14 | 53.52401 | 9.78203 | 2833 ft | 199 kts | 49° |
| 2026-05-05 18:14 | 53.53373 | 9.79773 | 2652 ft | 193 kts | 43° |
| 2026-05-05 18:15 | 53.54299 | 9.81385 | 2397 ft | 191 kts | 48° |
| 2026-05-05 18:15 | 53.55175 | 9.83060 | 2143 ft | 191 kts | 49° |
| 2026-05-05 18:15 | 53.56026 | 9.84735 | 1889 ft | 188 kts | 50° |
| 2026-05-05 18:15 | 53.56863 | 9.86406 | 1635 ft | 187 kts | 50° |
| 2026-05-05 18:16 | 53.57710 | 9.88102 | 1373 ft | 188 kts | 50° |
| 2026-05-05 18:16 | 53.58545 | 9.89779 | 1119 ft | 190 kts | 50° |
| 2026-05-05 18:16 | 53.59387 | 9.91472 | 865 ft | 191 kts | 50° |
| 2026-05-05 18:16 | 53.60251 | 9.93211 | 611 ft | 192 kts | 50° |
| 2026-05-05 18:17 | 53.61078 | 9.94878 | 341 ft | 179 kts | 50° |
| 2026-05-05 18:17 | 53.61830 | 9.96392 | 174 ft | 156 kts | 51° |
| 2026-05-05 18:17 | 53.62483 | 9.97709 | 34 ft | 135 kts | 51° |
| 2026-05-05 18:17 | 53.63023 | 9.98792 | 40 ft | 78 kts | 51° |
| 2026-05-05 18:18 | 53.63191 | 9.99134 | 39 ft | 8 kts | 51° |
| 2026-05-05 18:18 | 53.63226 | 9.99207 | 38 ft | 8 kts | 51° |
| 2026-05-05 18:18 | 53.63264 | 9.99292 | 37 ft | 10 kts | 57° |
| 2026-05-05 18:18 | 53.63289 | 9.99417 | 36 ft | 11 kts | 83° |
| 2026-05-05 18:19 | 53.63288 | 9.99537 | 36 ft | 7 kts | 97° |
| 2026-05-05 18:19 | 53.63282 | 9.99612 | 36 ft | 0 kts | 98° |
| 2026-05-05 18:20 | 53.63279 | 9.99645 | 36 ft | 7 kts | 102° |
| 2026-05-05 18:21 | 53.63249 | 9.99730 | 35 ft | 9 kts | 142° |
| 2026-05-05 18:21 | 53.63190 | 9.99789 | 34 ft | 10 kts | 153° |
| 2026-05-05 18:21 | 53.63127 | 9.99843 | 33 ft | 9 kts | 153° |
| 2026-05-05 18:21 | 53.63077 | 9.99887 | 35 ft | 6 kts | 152° |
| 2026-05-05 18:22 | 53.63046 | 9.99914 | 36 ft | 3 kts | 152° |
| 2026-05-05 18:22 | 53.63033 | 9.99925 | 36 ft | 2 kts | 152° |
| 2026-05-05 18:22 | 53.63003 | 9.99951 | 37 ft | 5 kts | 152° |
| 2026-05-05 18:22 | 53.62976 | 9.99976 | 39 ft | 4 kts | 147° |
| 2026-05-05 18:23 | 53.62953 | 10.00030 | 40 ft | 6 kts | 96° |
| 2026-05-05 18:23 | 53.62955 | 10.00089 | 41 ft | 0 kts | 87° |
| 2026-05-05 18:23 | 53.62958 | 10.00112 | 41 ft | 5 kts | 71° |
| 2026-05-05 18:23 | 53.62970 | 10.00161 | 42 ft | 4 kts | 78° |
| 2026-05-05 18:24 | 53.62964 | 10.00222 | 44 ft | 5 kts | 114° |
| 2026-05-05 18:24 | 53.62951 | 10.00263 | 44 ft | 2 kts | 120° |
| 2026-05-05 18:24 | 53.62946 | 10.00277 | 45 ft | 5 kts | 120° |
| 2026-05-05 18:24 | 53.62945 | 10.00279 | 45 ft | 0 kts | 120° |